Time,TemperatureF,DewpointF,PressureIn,WindDirection,WindDirectionDegrees,WindSpeedMPH,WindSpeedGustMPH,Humidity,HourlyPrecipIn,Conditions,Clouds,dailyrainin,SolarRadiationWatts/m^2,SoftwareType,DateUTC
2013-01-08 00:04:00,38.0,26.0,-100.00,NE,49,3.0,5.0,61,0.00,,,0.00,0.000000,,2013-01-08 05:04:00,
2013-01-08 00:33:00,37.0,26.0,-100.00,ENE,66,3.0,5.0,63,0.00,,,0.00,0.000000,,2013-01-08 05:33:00,
2013-01-08 00:43:00,37.0,26.0,-100.00,ENE,66,3.0,5.0,63,0.00,,,0.00,0.000000,,2013-01-08 05:43:00,
2013-01-08 00:53:00,37.0,26.0,-100.00,ENE,66,3.0,5.0,63,0.00,,,0.00,0.000000,,2013-01-08 05:53:00,
2013-01-08 01:02:00,37.0,26.0,-100.00,ENE,66,3.0,5.0,63,0.00,,,0.00,0.000000,,2013-01-08 06:02:00,
2013-01-08 01:33:00,37.0,26.0,-100.00,ENE,67,3.0,6.0,65,0.00,,,0.00,0.000000,,2013-01-08 06:33:00,
2013-01-08 01:43:00,37.0,26.0,-100.00,ENE,67,3.0,6.0,65,0.00,,,0.00,0.000000,,2013-01-08 06:43:00,
2013-01-08 01:53:00,37.0,26.0,-100.00,ENE,67,3.0,6.0,65,0.00,,,0.00,0.000000,,2013-01-08 06:53:00,
2013-01-08 02:02:00,37.0,26.0,-100.00,ENE,67,3.0,6.0,65,0.00,,,0.00,0.000000,,2013-01-08 07:02:00,
2013-01-08 02:32:00,37.0,27.0,-100.00,East,83,3.0,5.0,67,0.00,,,0.00,0.000000,,2013-01-08 07:32:00,
2013-01-08 02:42:00,37.0,27.0,-100.00,East,83,3.0,5.0,67,0.00,,,0.00,0.000000,,2013-01-08 07:42:00,
2013-01-08 02:52:00,37.0,27.0,-100.00,East,83,3.0,5.0,67,0.00,,,0.00,0.000000,,2013-01-08 07:52:00,
2013-01-08 03:02:00,37.0,27.0,-100.00,East,83,3.0,5.0,67,0.00,,,0.00,0.000000,,2013-01-08 08:02:00,
2013-01-08 03:32:00,36.0,27.0,-100.00,North,355,2.0,4.0,69,0.00,,,0.00,0.000000,,2013-01-08 08:32:00,
2013-01-08 03:42:00,36.0,27.0,-100.00,North,355,2.0,4.0,69,0.00,,,0.00,0.000000,,2013-01-08 08:42:00,
2013-01-08 03:53:00,36.0,27.0,-100.00,North,355,2.0,4.0,69,0.00,,,0.00,0.000000,,2013-01-08 08:53:00,
2013-01-08 04:02:00,36.0,27.0,-100.00,North,355,2.0,4.0,69,0.00,,,0.00,0.000000,,2013-01-08 09:02:00,
2013-01-08 04:33:00,34.0,27.0,-100.00,NW,326,3.0,5.0,74,0.00,,,0.00,0.000000,,2013-01-08 09:33:00,
2013-01-08 04:42:00,34.0,27.0,-100.00,NW,326,3.0,5.0,74,0.00,,,0.00,0.000000,,2013-01-08 09:42:00,
2013-01-08 04:53:00,34.0,27.0,-100.00,NW,326,3.0,5.0,74,0.00,,,0.00,0.000000,,2013-01-08 09:53:00,
2013-01-08 05:02:00,34.0,27.0,-100.00,NW,326,3.0,5.0,74,0.00,,,0.00,0.000000,,2013-01-08 10:02:00,
2013-01-08 05:33:00,33.0,25.0,-100.00,NW,304,4.0,5.0,73,0.00,,,0.00,0.000000,,2013-01-08 10:33:00,
2013-01-08 05:43:00,33.0,25.0,-100.00,NW,304,4.0,5.0,73,0.00,,,0.00,0.000000,,2013-01-08 10:43:00,
2013-01-08 05:53:00,33.0,25.0,-100.00,NW,304,4.0,5.0,73,0.00,,,0.00,0.000000,,2013-01-08 10:53:00,
2013-01-08 06:02:00,33.0,25.0,-100.00,NW,304,4.0,5.0,73,0.00,,,0.00,0.000000,,2013-01-08 11:02:00,
2013-01-08 06:33:00,34.0,27.0,-100.00,NW,314,4.0,5.0,75,0.00,,,0.00,0.000000,,2013-01-08 11:33:00,
2013-01-08 06:43:00,34.0,27.0,-100.00,NW,314,4.0,5.0,75,0.00,,,0.00,0.000000,,2013-01-08 11:43:00,
2013-01-08 06:53:00,34.0,27.0,-100.00,NW,314,4.0,5.0,75,0.00,,,0.00,0.000000,,2013-01-08 11:53:00,
2013-01-08 07:03:00,34.0,27.0,-100.00,NW,314,4.0,5.0,75,0.00,,,0.00,0.000000,,2013-01-08 12:03:00,
2013-01-08 07:33:00,35.0,28.0,-100.00,NNW,332,2.0,5.0,75,0.00,,,0.00,0.000000,,2013-01-08 12:33:00,
2013-01-08 07:43:00,35.0,28.0,-100.00,NNW,332,2.0,5.0,75,0.00,,,0.00,0.000000,,2013-01-08 12:43:00,
2013-01-08 07:53:00,35.0,28.0,-100.00,NNW,332,2.0,5.0,75,0.00,,,0.00,0.000000,,2013-01-08 12:53:00,
2013-01-08 08:03:00,35.0,28.0,-100.00,NNW,332,2.0,5.0,75,0.00,,,0.00,0.000000,,2013-01-08 13:03:00,
2013-01-08 08:33:00,36.0,29.0,-100.00,NW,317,3.0,4.0,74,0.00,,,0.00,6.000000,,2013-01-08 13:33:00,
2013-01-08 08:43:00,36.0,29.0,-100.00,NW,317,3.0,4.0,74,0.00,,,0.00,6.000000,,2013-01-08 13:43:00,
2013-01-08 08:53:00,36.0,29.0,-100.00,NW,317,3.0,4.0,74,0.00,,,0.00,6.000000,,2013-01-08 13:53:00,
2013-01-08 09:03:00,36.0,29.0,-100.00,NW,317,3.0,4.0,74,0.00,,,0.00,6.000000,,2013-01-08 14:03:00,
2013-01-08 09:33:00,40.0,32.0,-100.00,ENE,76,2.0,5.0,73,0.00,,,0.00,62.000000,,2013-01-08 14:33:00,
2013-01-08 09:43:00,40.0,32.0,-100.00,ENE,76,2.0,5.0,73,0.00,,,0.00,62.000000,,2013-01-08 14:43:00,
2013-01-08 09:53:00,40.0,32.0,-100.00,ENE,76,2.0,5.0,73,0.00,,,0.00,62.000000,,2013-01-08 14:53:00,
2013-01-08 10:03:00,40.0,32.0,-100.00,ENE,76,2.0,5.0,73,0.00,,,0.00,62.000000,,2013-01-08 15:03:00,
2013-01-08 10:33:00,43.0,31.0,-100.00,ESE,104,3.0,7.0,62,0.00,,,0.00,115.000000,,2013-01-08 15:33:00,
2013-01-08 10:43:00,43.0,31.0,-100.00,ESE,104,3.0,7.0,62,0.00,,,0.00,115.000000,,2013-01-08 15:43:00,
2013-01-08 10:53:00,43.0,31.0,-100.00,ESE,104,3.0,7.0,62,0.00,,,0.00,115.000000,,2013-01-08 15:53:00,
2013-01-08 11:03:00,43.0,31.0,-100.00,ESE,104,3.0,7.0,62,0.00,,,0.00,115.000000,,2013-01-08 16:03:00,
2013-01-08 11:34:00,44.0,31.0,-100.00,East,94,3.0,6.0,61,0.00,,,0.00,152.000000,,2013-01-08 16:34:00,
2013-01-08 11:43:00,44.0,31.0,-100.00,East,94,3.0,6.0,61,0.00,,,0.00,152.000000,,2013-01-08 16:43:00,
2013-01-08 11:53:00,44.0,31.0,-100.00,East,94,3.0,6.0,61,0.00,,,0.00,152.000000,,2013-01-08 16:53:00,
2013-01-08 12:03:00,44.0,31.0,-100.00,East,94,3.0,6.0,61,0.00,,,0.00,152.000000,,2013-01-08 17:03:00,
2013-01-08 12:34:00,46.0,32.0,-100.00,East,93,3.0,6.0,58,0.00,,,0.00,212.000000,,2013-01-08 17:34:00,
2013-01-08 12:43:00,46.0,32.0,-100.00,East,93,3.0,6.0,58,0.00,,,0.00,212.000000,,2013-01-08 17:43:00,
2013-01-08 12:54:00,46.0,32.0,-100.00,East,93,3.0,6.0,58,0.00,,,0.00,212.000000,,2013-01-08 17:54:00,
2013-01-08 13:04:00,46.0,32.0,-100.00,East,93,3.0,6.0,58,0.00,,,0.00,212.000000,,2013-01-08 18:04:00,
2013-01-08 13:33:00,47.0,30.0,-100.00,SE,125,3.0,6.0,51,0.00,,,0.00,218.000000,,2013-01-08 18:33:00,
2013-01-08 13:43:00,47.0,30.0,-100.00,SE,125,3.0,6.0,51,0.00,,,0.00,218.000000,,2013-01-08 18:43:00,
2013-01-08 13:53:00,47.0,30.0,-100.00,SE,125,3.0,6.0,51,0.00,,,0.00,218.000000,,2013-01-08 18:53:00,
2013-01-08 14:03:00,47.0,30.0,-100.00,SE,125,3.0,6.0,51,0.00,,,0.00,218.000000,,2013-01-08 19:03:00,
2013-01-08 14:33:00,50.0,32.0,-100.00,ESE,108,2.0,5.0,50,0.00,,,0.00,240.000000,,2013-01-08 19:33:00,
2013-01-08 14:43:00,50.0,32.0,-100.00,ESE,108,2.0,5.0,50,0.00,,,0.00,240.000000,,2013-01-08 19:43:00,
2013-01-08 14:53:00,50.0,32.0,-100.00,ESE,108,2.0,5.0,50,0.00,,,0.00,240.000000,,2013-01-08 19:53:00,
2013-01-08 15:03:00,50.0,32.0,-100.00,ESE,108,2.0,5.0,50,0.00,,,0.00,240.000000,,2013-01-08 20:03:00,
2013-01-08 15:33:00,50.0,33.0,-100.00,SE,142,2.0,4.0,51,0.00,,,0.00,193.000000,,2013-01-08 20:33:00,
2013-01-08 15:43:00,50.0,33.0,-100.00,SE,142,2.0,4.0,51,0.00,,,0.00,193.000000,,2013-01-08 20:43:00,
2013-01-08 15:54:00,50.0,33.0,-100.00,SE,142,2.0,4.0,51,0.00,,,0.00,193.000000,,2013-01-08 20:54:00,
2013-01-08 16:03:00,50.0,33.0,-100.00,SE,142,2.0,4.0,51,0.00,,,0.00,193.000000,,2013-01-08 21:03:00,
2013-01-08 16:33:00,50.0,33.0,-100.00,ESE,104,2.0,5.0,52,0.00,,,0.00,121.000000,,2013-01-08 21:33:00,
2013-01-08 16:43:00,50.0,33.0,-100.00,ESE,104,2.0,5.0,52,0.00,,,0.00,121.000000,,2013-01-08 21:43:00,
2013-01-08 16:53:00,50.0,33.0,-100.00,ESE,104,2.0,5.0,52,0.00,,,0.00,121.000000,,2013-01-08 21:53:00,
2013-01-08 17:04:00,50.0,33.0,-100.00,ESE,104,2.0,5.0,52,0.00,,,0.00,121.000000,,2013-01-08 22:04:00,
2013-01-08 17:33:00,49.0,34.0,-100.00,East,90,2.0,4.0,56,0.00,,,0.00,50.000000,,2013-01-08 22:33:00,
2013-01-08 17:43:00,49.0,34.0,-100.00,East,90,2.0,4.0,56,0.00,,,0.00,50.000000,,2013-01-08 22:43:00,
2013-01-08 17:53:00,49.0,34.0,-100.00,East,90,2.0,4.0,56,0.00,,,0.00,50.000000,,2013-01-08 22:53:00,
2013-01-08 18:03:00,49.0,34.0,-100.00,East,90,2.0,4.0,56,0.00,,,0.00,50.000000,,2013-01-08 23:03:00,
2013-01-08 18:33:00,47.0,34.0,-100.00,East,96,2.0,3.0,60,0.00,,,0.00,7.000000,,2013-01-08 23:33:00,
2013-01-08 18:43:00,47.0,34.0,-100.00,East,96,2.0,3.0,60,0.00,,,0.00,7.000000,,2013-01-08 23:43:00,
2013-01-08 18:53:00,47.0,34.0,-100.00,East,96,2.0,3.0,60,0.00,,,0.00,7.000000,,2013-01-08 23:53:00,
2013-01-08 19:03:00,47.0,34.0,-100.00,East,96,2.0,3.0,60,0.00,,,0.00,7.000000,,2013-01-09 00:03:00,
2013-01-08 19:33:00,47.0,33.0,-100.00,North,10,1.0,3.0,59,0.00,,,0.00,0.000000,,2013-01-09 00:33:00,
2013-01-08 19:43:00,47.0,33.0,-100.00,North,10,1.0,3.0,59,0.00,,,0.00,0.000000,,2013-01-09 00:43:00,
2013-01-08 19:53:00,47.0,33.0,-100.00,North,10,1.0,3.0,59,0.00,,,0.00,0.000000,,2013-01-09 00:53:00,
2013-01-08 20:02:00,47.0,33.0,-100.00,North,10,1.0,3.0,59,0.00,,,0.00,0.000000,,2013-01-09 01:02:00,
2013-01-08 20:33:00,47.0,34.0,-100.00,NNW,335,2.0,3.0,61,0.00,,,0.00,0.000000,,2013-01-09 01:33:00,
2013-01-08 20:43:00,47.0,34.0,-100.00,NNW,335,2.0,3.0,61,0.00,,,0.00,0.000000,,2013-01-09 01:43:00,
2013-01-08 20:53:00,47.0,34.0,-100.00,NNW,335,2.0,3.0,61,0.00,,,0.00,0.000000,,2013-01-09 01:53:00,
2013-01-08 21:02:00,47.0,34.0,-100.00,NNW,335,2.0,3.0,61,0.00,,,0.00,0.000000,,2013-01-09 02:02:00,
2013-01-08 21:33:00,47.0,35.0,-100.00,East,99,2.0,4.0,62,0.00,,,0.00,0.000000,,2013-01-09 02:33:00,
2013-01-08 21:43:00,47.0,35.0,-100.00,East,99,2.0,4.0,62,0.00,,,0.00,0.000000,,2013-01-09 02:43:00,
2013-01-08 21:53:00,47.0,35.0,-100.00,East,99,2.0,4.0,62,0.00,,,0.00,0.000000,,2013-01-09 02:53:00,
2013-01-08 22:03:00,47.0,35.0,-100.00,East,99,2.0,4.0,62,0.00,,,0.00,0.000000,,2013-01-09 03:03:00,
2013-01-08 22:33:00,47.0,35.0,-100.00,East,96,2.0,5.0,62,0.00,,,0.00,0.000000,,2013-01-09 03:33:00,
2013-01-08 22:43:00,47.0,35.0,-100.00,East,96,2.0,5.0,62,0.00,,,0.00,0.000000,,2013-01-09 03:43:00,
2013-01-08 22:53:00,47.0,35.0,-100.00,East,96,2.0,5.0,62,0.00,,,0.00,0.000000,,2013-01-09 03:53:00,
2013-01-08 23:02:00,47.0,35.0,-100.00,East,96,2.0,5.0,62,0.00,,,0.00,0.000000,,2013-01-09 04:02:00,
2013-01-08 23:33:00,47.0,35.0,-100.00,NNE,25,2.0,4.0,64,0.00,,,0.00,0.000000,,2013-01-09 04:33:00,
2013-01-08 23:43:00,47.0,35.0,-100.00,NNE,25,2.0,4.0,64,0.00,,,0.00,0.000000,,2013-01-09 04:43:00,
2013-01-08 23:53:00,47.0,35.0,-100.00,NNE,25,2.0,4.0,64,0.00,,,0.00,0.000000,,2013-01-09 04:53:00,